sensor_id;sensor_type;location;lat;lon;timestamp;pressure;altitude;pressure_sealevel;temperature;humidity
5455;BME280;2750;49.050;9.250;2023-04-23T00:04:29;98099.84;;;17.19;86.69
5455;BME280;2750;49.050;9.250;2023-04-23T00:09:34;98105.06;;;17.40;86.22
5455;BME280;2750;49.050;9.250;2023-04-23T00:14:36;98106.09;;;17.07;87.12
5455;BME280;2750;49.050;9.250;2023-04-23T00:19:37;98104.44;;;16.64;89.07
5455;BME280;2750;49.050;9.250;2023-04-23T00:24:40;98117.47;;;16.76;89.09
5455;BME280;2750;49.050;9.250;2023-04-23T00:29:41;98118.38;;;16.54;89.91
5455;BME280;2750;49.050;9.250;2023-04-23T00:34:45;98120.88;;;16.23;90.23
5455;BME280;2750;49.050;9.250;2023-04-23T00:39:49;98122.56;;;16.45;90.30
5455;BME280;2750;49.050;9.250;2023-04-23T00:44:51;98131.41;;;16.33;90.29
5455;BME280;2750;49.050;9.250;2023-04-23T00:49:52;98144.50;;;16.44;90.39
5455;BME280;2750;49.050;9.250;2023-04-23T00:54:56;98143.78;;;16.42;90.08
5455;BME280;2750;49.050;9.250;2023-04-23T00:59:58;98151.72;;;15.64;92.41
5455;BME280;2750;49.050;9.250;2023-04-23T01:05:00;98153.50;;;15.07;95.18
5455;BME280;2750;49.050;9.250;2023-04-23T01:10:04;98154.22;;;14.98;96.16
5455;BME280;2750;49.050;9.250;2023-04-23T01:15:07;98157.81;;;15.19;95.67
5455;BME280;2750;49.050;9.250;2023-04-23T01:20:09;98166.41;;;15.21;95.62
5455;BME280;2750;49.050;9.250;2023-04-23T01:25:12;98168.84;;;15.11;95.65
5455;BME280;2750;49.050;9.250;2023-04-23T01:30:14;98175.44;;;15.28;95.57
5455;BME280;2750;49.050;9.250;2023-04-23T01:35:15;98170.75;;;14.74;96.12
5455;BME280;2750;49.050;9.250;2023-04-23T01:40:19;98182.56;;;14.91;97.25
5455;BME280;2750;49.050;9.250;2023-04-23T01:45:21;98172.84;;;14.69;97.47
5455;BME280;2750;49.050;9.250;2023-04-23T01:50:22;98167.97;;;15.00;96.61
5455;BME280;2750;49.050;9.250;2023-04-23T01:55:26;98174.03;;;15.00;95.95
5455;BME280;2750;49.050;9.250;2023-04-23T02:00:28;98186.78;;;15.05;96.20
5455;BME280;2750;49.050;9.250;2023-04-23T02:05:33;98188.94;;;15.22;95.38
5455;BME280;2750;49.050;9.250;2023-04-23T02:10:36;98196.25;;;14.95;95.14
5455;BME280;2750;49.050;9.250;2023-04-23T02:15:38;98200.97;;;14.90;95.69
5455;BME280;2750;49.050;9.250;2023-04-23T02:20:39;98198.63;;;14.98;95.36
5455;BME280;2750;49.050;9.250;2023-04-23T02:25:42;98191.22;;;15.26;94.21
5455;BME280;2750;49.050;9.250;2023-04-23T02:30:44;98196.91;;;14.86;95.56
5455;BME280;2750;49.050;9.250;2023-04-23T02:35:47;98195.97;;;14.87;95.96
5455;BME280;2750;49.050;9.250;2023-04-23T02:40:49;98203.84;;;14.98;95.43
5455;BME280;2750;49.050;9.250;2023-04-23T02:45:51;98200.97;;;14.90;96.21
5455;BME280;2750;49.050;9.250;2023-04-23T02:50:52;98202.69;;;15.02;95.19
5455;BME280;2750;49.050;9.250;2023-04-23T02:55:55;98198.13;;;14.93;95.64
5455;BME280;2750;49.050;9.250;2023-04-23T03:00:57;98188.59;;;15.15;95.30
5455;BME280;2750;49.050;9.250;2023-04-23T03:06:00;98191.69;;;15.77;92.75
5455;BME280;2750;49.050;9.250;2023-04-23T03:11:03;98194.13;;;15.46;93.10
5455;BME280;2750;49.050;9.250;2023-04-23T03:16:04;98194.66;;;15.73;92.42
5455;BME280;2750;49.050;9.250;2023-04-23T03:21:06;98187.78;;;15.94;91.30
5455;BME280;2750;49.050;9.250;2023-04-23T03:26:09;98185.84;;;16.18;90.71
5455;BME280;2750;49.050;9.250;2023-04-23T03:31:10;98178.13;;;15.95;91.49
5455;BME280;2750;49.050;9.250;2023-04-23T03:36:12;98189.19;;;16.20;90.80
5455;BME280;2750;49.050;9.250;2023-04-23T03:41:16;98187.03;;;16.14;90.83
5455;BME280;2750;49.050;9.250;2023-04-23T03:46:17;98189.22;;;15.98;91.35
5455;BME280;2750;49.050;9.250;2023-04-23T03:51:19;98193.81;;;15.95;91.51
5455;BME280;2750;49.050;9.250;2023-04-23T03:56:22;98194.31;;;15.77;92.15
5455;BME280;2750;49.050;9.250;2023-04-23T04:01:23;98194.41;;;15.76;92.22
5455;BME280;2750;49.050;9.250;2023-04-23T04:06:25;98193.31;;;15.56;93.24
5455;BME280;2750;49.050;9.250;2023-04-23T04:11:27;98192.53;;;15.56;93.63
5455;BME280;2750;49.050;9.250;2023-04-23T04:16:29;98197.38;;;15.60;94.03
5455;BME280;2750;49.050;9.250;2023-04-23T04:21:30;98197.53;;;15.35;93.75
5455;BME280;2750;49.050;9.250;2023-04-23T04:26:34;98192.63;;;15.54;93.95
5455;BME280;2750;49.050;9.250;2023-04-23T04:31:36;98199.78;;;15.63;93.60
5455;BME280;2750;49.050;9.250;2023-04-23T04:36:37;98202.25;;;15.65;93.81
5455;BME280;2750;49.050;9.250;2023-04-23T04:41:40;98216.06;;;15.56;94.13
5455;BME280;2750;49.050;9.250;2023-04-23T04:46:43;98212.47;;;15.22;94.28
5455;BME280;2750;49.050;9.250;2023-04-23T04:51:45;98211.31;;;15.37;94.02
5455;BME280;2750;49.050;9.250;2023-04-23T04:56:48;98208.00;;;15.35;94.21
5455;BME280;2750;49.050;9.250;2023-04-23T05:01:49;98225.69;;;15.20;94.20
5455;BME280;2750;49.050;9.250;2023-04-23T05:06:51;98231.28;;;15.27;93.51
5455;BME280;2750;49.050;9.250;2023-04-23T05:11:54;98228.69;;;15.38;93.71
5455;BME280;2750;49.050;9.250;2023-04-23T05:16:56;98226.44;;;15.45;92.95
5455;BME280;2750;49.050;9.250;2023-04-23T05:21:57;98214.50;;;15.29;92.92
5455;BME280;2750;49.050;9.250;2023-04-23T05:27:00;98222.56;;;15.15;93.64
5455;BME280;2750;49.050;9.250;2023-04-23T05:32:02;98211.09;;;15.29;93.16
5455;BME280;2750;49.050;9.250;2023-04-23T05:37:03;98223.66;;;15.59;91.83
5455;BME280;2750;49.050;9.250;2023-04-23T05:42:06;98219.03;;;15.85;91.55
5455;BME280;2750;49.050;9.250;2023-04-23T05:47:09;98213.56;;;15.88;90.95
5455;BME280;2750;49.050;9.250;2023-04-23T05:52:11;98226.91;;;16.07;89.59
5455;BME280;2750;49.050;9.250;2023-04-23T05:57:15;98229.38;;;16.31;89.07
5455;BME280;2750;49.050;9.250;2023-04-23T06:02:16;98234.47;;;16.54;88.15
5455;BME280;2750;49.050;9.250;2023-04-23T06:07:18;98222.41;;;16.85;87.01
5455;BME280;2750;49.050;9.250;2023-04-23T06:12:21;98223.81;;;16.89;86.24
5455;BME280;2750;49.050;9.250;2023-04-23T06:17:22;98219.94;;;17.04;85.27
5455;BME280;2750;49.050;9.250;2023-04-23T06:22:24;98219.94;;;17.25;84.71
5455;BME280;2750;49.050;9.250;2023-04-23T06:27:27;98217.53;;;17.33;84.39
5455;BME280;2750;49.050;9.250;2023-04-23T06:32:29;98223.25;;;17.59;84.30
5455;BME280;2750;49.050;9.250;2023-04-23T06:37:30;98217.94;;;17.70;83.84
5455;BME280;2750;49.050;9.250;2023-04-23T06:42:33;98214.50;;;18.00;83.28
5455;BME280;2750;49.050;9.250;2023-04-23T06:47:35;98215.09;;;17.83;81.56
5455;BME280;2750;49.050;9.250;2023-04-23T06:52:36;98203.19;;;18.09;82.16
5455;BME280;2750;49.050;9.250;2023-04-23T06:57:39;98200.63;;;18.78;81.02
5455;BME280;2750;49.050;9.250;2023-04-23T07:02:41;98200.19;;;18.82;78.73
5455;BME280;2750;49.050;9.250;2023-04-23T07:07:42;98192.38;;;19.67;78.44
5455;BME280;2750;49.050;9.250;2023-04-23T07:12:45;98193.97;;;20.51;74.68
5455;BME280;2750;49.050;9.250;2023-04-23T07:17:47;98186.56;;;19.73;76.50
5455;BME280;2750;49.050;9.250;2023-04-23T07:22:48;98178.47;;;20.48;74.70
5455;BME280;2750;49.050;9.250;2023-04-23T07:27:51;98183.03;;;22.04;70.78
5455;BME280;2750;49.050;9.250;2023-04-23T07:32:53;98180.34;;;21.09;72.63
5455;BME280;2750;49.050;9.250;2023-04-23T07:37:55;98175.63;;;20.60;73.82
5455;BME280;2750;49.050;9.250;2023-04-23T07:42:58;98180.22;;;20.58;74.58
5455;BME280;2750;49.050;9.250;2023-04-23T07:48:00;98175.50;;;21.66;71.94
5455;BME280;2750;49.050;9.250;2023-04-23T07:53:02;98160.16;;;23.11;67.47
5455;BME280;2750;49.050;9.250;2023-04-23T07:58:05;98165.78;;;23.32;67.64
5455;BME280;2750;49.050;9.250;2023-04-23T08:03:06;98166.09;;;23.54;65.64
5455;BME280;2750;49.050;9.250;2023-04-23T08:08:10;98161.44;;;23.80;66.01
5455;BME280;2750;49.050;9.250;2023-04-23T08:13:13;98150.38;;;24.77;64.24
5455;BME280;2750;49.050;9.250;2023-04-23T08:18:15;98139.69;;;24.32;63.72
5455;BME280;2750;49.050;9.250;2023-04-23T08:23:16;98131.41;;;25.63;61.60
5455;BME280;2750;49.050;9.250;2023-04-23T08:28:19;98120.53;;;27.44;56.87
5455;BME280;2750;49.050;9.250;2023-04-23T08:33:21;98123.91;;;25.81;58.02
5455;BME280;2750;49.050;9.250;2023-04-23T08:38:23;98117.28;;;25.92;57.78
5455;BME280;2750;49.050;9.250;2023-04-23T08:43:31;98122.03;;;25.15;60.18
5455;BME280;2750;49.050;9.250;2023-04-23T08:48:34;98116.97;;;24.37;62.10
5455;BME280;2750;49.050;9.250;2023-04-23T08:53:36;98121.28;;;23.99;62.73
5455;BME280;2750;49.050;9.250;2023-04-23T08:58:40;98111.31;;;24.01;63.09
5455;BME280;2750;49.050;9.250;2023-04-23T09:03:42;98109.63;;;24.08;61.69
5455;BME280;2750;49.050;9.250;2023-04-23T09:08:44;98110.81;;;23.98;61.63
5455;BME280;2750;49.050;9.250;2023-04-23T09:13:47;98101.13;;;24.21;61.08
5455;BME280;2750;49.050;9.250;2023-04-23T09:18:49;98095.84;;;23.74;61.90
5455;BME280;2750;49.050;9.250;2023-04-23T09:23:51;98092.34;;;23.73;61.21
5455;BME280;2750;49.050;9.250;2023-04-23T09:28:54;98081.69;;;23.34;61.88
5455;BME280;2750;49.050;9.250;2023-04-23T09:33:57;98069.91;;;22.24;64.36
5455;BME280;2750;49.050;9.250;2023-04-23T09:38:58;98063.84;;;22.56;62.28
5455;BME280;2750;49.050;9.250;2023-04-23T09:44:01;98052.50;;;23.98;60.19
5455;BME280;2750;49.050;9.250;2023-04-23T09:49:03;98057.78;;;24.37;59.73
5455;BME280;2750;49.050;9.250;2023-04-23T09:54:10;98057.09;;;24.57;59.73
5455;BME280;2750;49.050;9.250;2023-04-23T09:59:20;98050.22;;;24.71;59.37
5455;BME280;2750;49.050;9.250;2023-04-23T10:04:23;98043.72;;;24.73;59.86
5455;BME280;2750;49.050;9.250;2023-04-23T10:09:26;98047.78;;;25.21;58.42
5455;BME280;2750;49.050;9.250;2023-04-23T10:14:30;98037.72;;;24.80;57.68
5455;BME280;2750;49.050;9.250;2023-04-23T10:19:31;98032.38;;;25.17;57.52
5455;BME280;2750;49.050;9.250;2023-04-23T10:24:37;98025.63;;;25.58;55.83
5455;BME280;2750;49.050;9.250;2023-04-23T10:29:42;98015.94;;;23.85;58.26
5455;BME280;2750;49.050;9.250;2023-04-23T10:34:44;98005.53;;;23.37;58.18
5455;BME280;2750;49.050;9.250;2023-04-23T10:39:49;98005.53;;;24.60;56.54
5455;BME280;2750;49.050;9.250;2023-04-23T10:44:57;98001.69;;;24.40;55.61
5455;BME280;2750;49.050;9.250;2023-04-23T10:50:17;97999.97;;;25.21;54.43
5455;BME280;2750;49.050;9.250;2023-04-23T10:55:20;97984.56;;;25.02;55.57
5455;BME280;2750;49.050;9.250;2023-04-23T11:00:23;97973.13;;;25.16;56.05
5455;BME280;2750;49.050;9.250;2023-04-23T11:05:25;97962.66;;;26.16;54.68
5455;BME280;2750;49.050;9.250;2023-04-23T11:10:30;97960.63;;;26.60;54.93
5455;BME280;2750;49.050;9.250;2023-04-23T11:15:33;97952.09;;;26.23;53.66
5455;BME280;2750;49.050;9.250;2023-04-23T11:20:34;97944.13;;;26.99;52.32
5455;BME280;2750;49.050;9.250;2023-04-23T11:25:37;97933.34;;;26.31;53.57
5455;BME280;2750;49.050;9.250;2023-04-23T11:30:43;97935.69;;;26.96;53.16
5455;BME280;2750;49.050;9.250;2023-04-23T11:35:50;97924.78;;;26.84;52.85
5455;BME280;2750;49.050;9.250;2023-04-23T11:40:51;97921.53;;;26.89;52.82
5455;BME280;2750;49.050;9.250;2023-04-23T11:45:55;97919.94;;;26.45;53.39
5455;BME280;2750;49.050;9.250;2023-04-23T11:50:56;97909.94;;;26.75;53.35
5455;BME280;2750;49.050;9.250;2023-04-23T11:55:58;97901.50;;;26.99;51.84
5455;BME280;2750;49.050;9.250;2023-04-23T12:01:01;97886.13;;;26.67;52.43
5455;BME280;2750;49.050;9.250;2023-04-23T12:06:03;97879.47;;;26.56;52.39
5455;BME280;2750;49.050;9.250;2023-04-23T12:11:04;97869.19;;;26.81;51.48
5455;BME280;2750;49.050;9.250;2023-04-23T12:16:07;97851.34;;;27.70;51.50
5455;BME280;2750;49.050;9.250;2023-04-23T12:21:10;97850.13;;;26.43;53.04
5455;BME280;2750;49.050;9.250;2023-04-23T12:26:14;97842.13;;;26.37;51.79
5455;BME280;2750;49.050;9.250;2023-04-23T12:31:19;97834.56;;;25.70;52.71
5455;BME280;2750;49.050;9.250;2023-04-23T12:36:26;97823.47;;;26.37;51.12
5455;BME280;2750;49.050;9.250;2023-04-23T12:41:28;97811.81;;;27.13;50.35
5455;BME280;2750;49.050;9.250;2023-04-23T12:46:31;97801.97;;;25.83;52.09
5455;BME280;2750;49.050;9.250;2023-04-23T12:51:33;97796.16;;;26.56;52.10
5455;BME280;2750;49.050;9.250;2023-04-23T12:56:34;97784.50;;;26.98;50.44
5455;BME280;2750;49.050;9.250;2023-04-23T13:01:38;97774.25;;;27.01;50.77
5455;BME280;2750;49.050;9.250;2023-04-23T13:06:40;97774.91;;;26.69;51.11
5455;BME280;2750;49.050;9.250;2023-04-23T13:11:41;97757.31;;;27.29;49.40
5455;BME280;2750;49.050;9.250;2023-04-23T13:16:44;97744.78;;;27.23;49.86
5455;BME280;2750;49.050;9.250;2023-04-23T13:21:46;97731.16;;;26.91;50.03
5455;BME280;2750;49.050;9.250;2023-04-23T13:26:47;97720.69;;;26.83;50.19
5455;BME280;2750;49.050;9.250;2023-04-23T13:31:50;97724.13;;;26.30;50.68
5455;BME280;2750;49.050;9.250;2023-04-23T13:36:52;97711.56;;;26.51;50.81
5455;BME280;2750;49.050;9.250;2023-04-23T13:41:53;97711.56;;;26.58;50.72
5455;BME280;2750;49.050;9.250;2023-04-23T13:46:56;97694.41;;;25.92;50.95
5455;BME280;2750;49.050;9.250;2023-04-23T13:51:58;97684.31;;;27.30;50.53
5455;BME280;2750;49.050;9.250;2023-04-23T13:57:03;97671.66;;;28.42;48.90
5455;BME280;2750;49.050;9.250;2023-04-23T14:02:06;97653.88;;;28.10;47.64
5455;BME280;2750;49.050;9.250;2023-04-23T14:07:08;97648.59;;;27.90;48.03
5455;BME280;2750;49.050;9.250;2023-04-23T14:12:09;97645.13;;;27.76;48.76
5455;BME280;2750;49.050;9.250;2023-04-23T14:17:12;97629.13;;;28.40;47.18
5455;BME280;2750;49.050;9.250;2023-04-23T14:22:13;97626.19;;;29.49;45.17
5455;BME280;2750;49.050;9.250;2023-04-23T14:27:15;97624.41;;;29.12;46.48
5455;BME280;2750;49.050;9.250;2023-04-23T14:32:18;97611.81;;;29.19;46.30
5455;BME280;2750;49.050;9.250;2023-04-23T14:37:20;97597.47;;;29.38;46.02
5455;BME280;2750;49.050;9.250;2023-04-23T14:42:21;97578.72;;;29.81;45.85
5455;BME280;2750;49.050;9.250;2023-04-23T14:47:24;97574.63;;;29.78;46.32
5455;BME280;2750;49.050;9.250;2023-04-23T14:52:26;97569.31;;;29.97;45.65
5455;BME280;2750;49.050;9.250;2023-04-23T14:57:27;97558.22;;;30.11;45.83
5455;BME280;2750;49.050;9.250;2023-04-23T15:02:30;97553.66;;;30.71;45.08
5455;BME280;2750;49.050;9.250;2023-04-23T15:07:33;97552.25;;;31.22;44.14
5455;BME280;2750;49.050;9.250;2023-04-23T15:12:46;97550.84;;;30.36;44.68
5455;BME280;2750;49.050;9.250;2023-04-23T15:17:49;97546.63;;;27.81;49.23
5455;BME280;2750;49.050;9.250;2023-04-23T15:22:51;97541.81;;;27.52;46.84
5455;BME280;2750;49.050;9.250;2023-04-23T15:27:52;97542.47;;;25.95;48.38
5455;BME280;2750;49.050;9.250;2023-04-23T15:32:58;97553.97;;;26.15;49.52
5455;BME280;2750;49.050;9.250;2023-04-23T15:38:00;97540.44;;;25.00;50.13
5455;BME280;2750;49.050;9.250;2023-04-23T15:43:01;97529.09;;;25.13;49.16
5455;BME280;2750;49.050;9.250;2023-04-23T15:48:04;97541.41;;;25.89;49.87
5455;BME280;2750;49.050;9.250;2023-04-23T15:53:06;97548.97;;;25.86;50.56
5455;BME280;2750;49.050;9.250;2023-04-23T15:58:07;97538.69;;;26.24;50.90
5455;BME280;2750;49.050;9.250;2023-04-23T16:03:10;97530.50;;;26.45;47.71
5455;BME280;2750;49.050;9.250;2023-04-23T16:08:13;97534.44;;;26.69;48.68
5455;BME280;2750;49.050;9.250;2023-04-23T16:13:16;97534.19;;;26.24;47.78
5455;BME280;2750;49.050;9.250;2023-04-23T16:18:21;97520.41;;;25.60;50.13
5455;BME280;2750;49.050;9.250;2023-04-23T16:23:22;97530.53;;;25.15;50.38
5455;BME280;2750;49.050;9.250;2023-04-23T16:28:24;97529.81;;;25.00;50.35
5455;BME280;2750;49.050;9.250;2023-04-23T16:33:27;97532.31;;;24.59;51.14
5455;BME280;2750;49.050;9.250;2023-04-23T16:38:29;97543.22;;;23.93;51.57
5455;BME280;2750;49.050;9.250;2023-04-23T16:43:30;97537.53;;;23.45;53.49
5455;BME280;2750;49.050;9.250;2023-04-23T16:48:33;97547.28;;;23.45;54.66
5455;BME280;2750;49.050;9.250;2023-04-23T16:53:35;97592.34;;;22.00;59.59
5455;BME280;2750;49.050;9.250;2023-04-23T16:58:36;97612.53;;;19.65;69.95
5455;BME280;2750;49.050;9.250;2023-04-23T17:03:39;97671.47;;;17.20;84.55
5455;BME280;2750;49.050;9.250;2023-04-23T17:08:40;97668.72;;;17.12;86.58
5455;BME280;2750;49.050;9.250;2023-04-23T17:13:42;97664.72;;;16.60;87.56
5455;BME280;2750;49.050;9.250;2023-04-23T17:18:45;97676.88;;;16.70;87.10
5455;BME280;2750;49.050;9.250;2023-04-23T17:23:46;97681.34;;;16.49;87.29
5455;BME280;2750;49.050;9.250;2023-04-23T17:28:48;97667.16;;;16.33;88.18
5455;BME280;2750;49.050;9.250;2023-04-23T17:33:51;97675.88;;;16.03;91.21
5455;BME280;2750;49.050;9.250;2023-04-23T17:38:53;97640.47;;;15.99;90.96
5455;BME280;2750;49.050;9.250;2023-04-23T17:43:55;97648.31;;;16.67;88.93
5455;BME280;2750;49.050;9.250;2023-04-23T17:48:58;97668.69;;;16.54;88.33
5455;BME280;2750;49.050;9.250;2023-04-23T17:53:59;97667.16;;;16.42;87.78
5455;BME280;2750;49.050;9.250;2023-04-23T17:59:01;97674.72;;;16.45;88.82
5455;BME280;2750;49.050;9.250;2023-04-23T18:04:04;97660.97;;;16.53;87.74
5455;BME280;2750;49.050;9.250;2023-04-23T18:09:06;97649.69;;;16.71;87.06
5455;BME280;2750;49.050;9.250;2023-04-23T18:14:08;97641.56;;;16.94;86.29
5455;BME280;2750;49.050;9.250;2023-04-23T18:19:11;97660.28;;;17.28;85.18
5455;BME280;2750;49.050;9.250;2023-04-23T18:24:12;97656.88;;;16.89;86.75
5455;BME280;2750;49.050;9.250;2023-04-23T18:29:17;97662.53;;;17.03;88.09
5455;BME280;2750;49.050;9.250;2023-04-23T18:34:22;97667.19;;;17.19;87.24
5455;BME280;2750;49.050;9.250;2023-04-23T18:39:23;97657.41;;;17.02;89.29
5455;BME280;2750;49.050;9.250;2023-04-23T18:44:25;97666.13;;;16.93;89.59
5455;BME280;2750;49.050;9.250;2023-04-23T18:49:43;97678.06;;;16.47;90.72
5455;BME280;2750;49.050;9.250;2023-04-23T18:54:45;97682.63;;;16.55;89.70
5455;BME280;2750;49.050;9.250;2023-04-23T18:59:46;97681.41;;;16.59;89.67
5455;BME280;2750;49.050;9.250;2023-04-23T19:04:49;97697.69;;;16.13;90.64
5455;BME280;2750;49.050;9.250;2023-04-23T19:09:51;97705.13;;;15.87;91.79
5455;BME280;2750;49.050;9.250;2023-04-23T19:14:52;97708.38;;;15.70;91.79
5455;BME280;2750;49.050;9.250;2023-04-23T19:19:55;97700.84;;;15.35;93.27
5455;BME280;2750;49.050;9.250;2023-04-23T19:24:57;97704.84;;;15.39;92.61
5455;BME280;2750;49.050;9.250;2023-04-23T19:29:58;97707.16;;;15.53;92.10
5455;BME280;2750;49.050;9.250;2023-04-23T19:35:01;97721.22;;;15.52;91.35
5455;BME280;2750;49.050;9.250;2023-04-23T19:40:04;97742.47;;;15.27;90.48
5455;BME280;2750;49.050;9.250;2023-04-23T19:45:07;97745.34;;;15.24;89.66
5455;BME280;2750;49.050;9.250;2023-04-23T19:50:10;97757.66;;;15.33;89.12
5455;BME280;2750;49.050;9.250;2023-04-23T19:55:13;97755.78;;;15.45;88.54
5455;BME280;2750;49.050;9.250;2023-04-23T20:00:17;97739.97;;;15.25;88.52
5455;BME280;2750;49.050;9.250;2023-04-23T20:05:20;97737.81;;;15.30;88.53
5455;BME280;2750;49.050;9.250;2023-04-23T20:10:22;97730.59;;;15.23;88.05
5455;BME280;2750;49.050;9.250;2023-04-23T20:15:28;97729.28;;;15.28;88.72
5455;BME280;2750;49.050;9.250;2023-04-23T20:20:31;97709.25;;;15.39;87.73
5455;BME280;2750;49.050;9.250;2023-04-23T20:25:33;97712.59;;;15.61;85.72
5455;BME280;2750;49.050;9.250;2023-04-23T20:30:35;97707.44;;;15.50;86.94
5455;BME280;2750;49.050;9.250;2023-04-23T20:35:38;97723.78;;;15.31;86.90
5455;BME280;2750;49.050;9.250;2023-04-23T20:40:41;97750.78;;;15.32;86.41
5455;BME280;2750;49.050;9.250;2023-04-23T20:45:42;97752.56;;;15.00;85.57
5455;BME280;2750;49.050;9.250;2023-04-23T20:50:46;97748.72;;;15.36;84.12
5455;BME280;2750;49.050;9.250;2023-04-23T20:55:49;97766.41;;;15.43;83.67
5455;BME280;2750;49.050;9.250;2023-04-23T21:00:50;97758.72;;;15.62;82.62
5455;BME280;2750;49.050;9.250;2023-04-23T21:05:53;97755.13;;;15.84;81.82
5455;BME280;2750;49.050;9.250;2023-04-23T21:10:55;97757.41;;;15.98;80.71
5455;BME280;2750;49.050;9.250;2023-04-23T21:15:57;97763.97;;;16.23;79.64
5455;BME280;2750;49.050;9.250;2023-04-23T21:21:00;97774.22;;;16.36;79.32
5455;BME280;2750;49.050;9.250;2023-04-23T21:26:01;97768.19;;;16.14;80.23
5455;BME280;2750;49.050;9.250;2023-04-23T21:31:08;97759.09;;;16.09;81.33
5455;BME280;2750;49.050;9.250;2023-04-23T21:36:11;97753.97;;;15.98;82.55
5455;BME280;2750;49.050;9.250;2023-04-23T21:41:12;97750.59;;;15.86;83.45
5455;BME280;2750;49.050;9.250;2023-04-23T21:46:14;97752.69;;;15.71;83.78
5455;BME280;2750;49.050;9.250;2023-04-23T21:51:17;97755.22;;;15.41;84.30
5455;BME280;2750;49.050;9.250;2023-04-23T21:56:20;97758.16;;;15.27;84.61
5455;BME280;2750;49.050;9.250;2023-04-23T22:01:21;97747.06;;;15.14;83.65
5455;BME280;2750;49.050;9.250;2023-04-23T22:06:24;97756.75;;;15.23;83.64
5455;BME280;2750;49.050;9.250;2023-04-23T22:11:26;97761.22;;;15.00;83.15
5455;BME280;2750;49.050;9.250;2023-04-23T22:16:29;97748.28;;;14.67;83.33
5455;BME280;2750;49.050;9.250;2023-04-23T22:21:32;97750.53;;;14.71;83.57
5455;BME280;2750;49.050;9.250;2023-04-23T22:26:34;97756.03;;;14.46;82.94
5455;BME280;2750;49.050;9.250;2023-04-23T22:31:35;97756.72;;;14.15;83.90
5455;BME280;2750;49.050;9.250;2023-04-23T22:36:38;97748.44;;;14.10;84.22
5455;BME280;2750;49.050;9.250;2023-04-23T22:41:42;97746.44;;;14.02;84.72
5455;BME280;2750;49.050;9.250;2023-04-23T22:46:43;97744.66;;;14.14;84.52
5455;BME280;2750;49.050;9.250;2023-04-23T22:51:47;97741.06;;;13.93;84.78
5455;BME280;2750;49.050;9.250;2023-04-23T22:56:49;97748.56;;;14.08;84.59
5455;BME280;2750;49.050;9.250;2023-04-23T23:01:51;97745.34;;;14.05;85.03
5455;BME280;2750;49.050;9.250;2023-04-23T23:06:54;97745.69;;;14.22;84.84
5455;BME280;2750;49.050;9.250;2023-04-23T23:11:55;97754.84;;;14.28;84.19
5455;BME280;2750;49.050;9.250;2023-04-23T23:16:57;97754.47;;;14.32;84.83
5455;BME280;2750;49.050;9.250;2023-04-23T23:22:00;97744.75;;;14.46;84.51
5455;BME280;2750;49.050;9.250;2023-04-23T23:27:01;97741.44;;;14.44;84.47
5455;BME280;2750;49.050;9.250;2023-04-23T23:32:03;97723.66;;;14.80;84.25
5455;BME280;2750;49.050;9.250;2023-04-23T23:37:06;97736.03;;;14.78;84.18
5455;BME280;2750;49.050;9.250;2023-04-23T23:42:07;97751.59;;;14.69;84.07
5455;BME280;2750;49.050;9.250;2023-04-23T23:47:09;97742.72;;;14.92;83.82
5455;BME280;2750;49.050;9.250;2023-04-23T23:52:12;97736.53;;;14.61;84.67
5455;BME280;2750;49.050;9.250;2023-04-23T23:57:13;97726.53;;;14.77;83.68
